createdAt,value
2022-09-15T00:01:09.518Z,2.80
2022-09-15T00:03:37.387Z,2.40
2022-09-15T00:06:04.709Z,3.17
2022-09-15T00:08:31.490Z,2.63
2022-09-15T00:11:07.185Z,3.03
2022-09-15T00:13:35.743Z,2.40
2022-09-15T00:16:04.133Z,2.60
2022-09-15T00:18:32.151Z,2.73
2022-09-15T00:20:58.902Z,2.40
2022-09-15T00:23:25.812Z,2.67
2022-09-15T00:25:53.850Z,2.57
2022-09-15T00:28:22.698Z,2.50
2022-09-15T00:30:54.133Z,2.60
2022-09-15T00:33:22.851Z,2.20
2022-09-15T00:35:53.197Z,2.27
2022-09-15T00:38:21.168Z,2.50
2022-09-15T00:40:53.014Z,2.50
2022-09-15T00:43:42.251Z,2.40
2022-09-15T00:46:10.099Z,2.70
2022-09-15T00:48:45.143Z,2.00
2022-09-15T00:51:16.533Z,2.27
2022-09-15T00:53:46.739Z,2.10
2022-09-15T00:56:15.731Z,2.20
2022-09-15T00:58:54.397Z,2.37
2022-09-15T01:01:25.067Z,2.23
2022-09-15T01:03:52.081Z,2.20
2022-09-15T01:06:37.879Z,2.33
2022-09-15T01:09:23.666Z,2.50
2022-09-15T01:11:50.906Z,2.33
2022-09-15T01:14:17.625Z,2.40
2022-09-15T01:17:06.813Z,2.57
2022-09-15T01:20:01.433Z,2.43
2022-09-15T01:22:56.755Z,2.20
2022-09-15T01:25:55.043Z,2.17
2022-09-15T01:29:13.471Z,2.60
2022-09-15T01:32:06.547Z,2.23
2022-09-15T01:34:44.259Z,2.10
2022-09-15T01:37:20.326Z,2.30
2022-09-15T01:39:51.429Z,2.23
2022-09-15T01:42:20.695Z,2.23
2022-09-15T01:45:06.914Z,2.30
2022-09-15T01:47:35.518Z,1.90
2022-09-15T01:50:24.785Z,2.20
2022-09-15T01:52:56.898Z,2.30
2022-09-15T01:55:43.810Z,1.90
2022-09-15T01:58:11.284Z,2.20
2022-09-15T02:00:45.799Z,2.43
2022-09-15T02:03:25.973Z,2.30
2022-09-15T02:06:02.886Z,2.40
2022-09-15T02:08:42.687Z,2.60
2022-09-15T02:11:40.692Z,1.93
2022-09-15T02:14:20.765Z,2.10
2022-09-15T02:16:53.854Z,2.20
2022-09-15T02:19:41.638Z,2.30
2022-09-15T02:22:17.536Z,2.70
2022-09-15T02:24:56.874Z,2.20
2022-09-15T02:27:28.628Z,2.70
2022-09-15T02:30:05.817Z,2.33
2022-09-15T02:32:36.895Z,2.23
2022-09-15T02:35:08.762Z,2.37
2022-09-15T02:37:38.321Z,2.40
2022-09-15T02:40:06.767Z,2.20
2022-09-15T02:42:34.465Z,2.47
2022-09-15T02:45:01.752Z,2.33
2022-09-15T02:47:30.388Z,2.30
2022-09-15T02:49:57.177Z,2.47
2022-09-15T02:52:24.001Z,2.43
2022-09-15T02:54:50.700Z,2.10
2022-09-15T02:57:17.699Z,2.30
2022-09-15T03:00:02.967Z,2.20
2022-09-15T03:02:30.019Z,2.50
2022-09-15T03:04:56.866Z,2.20
2022-09-15T03:07:24.806Z,2.53
2022-09-15T03:09:51.572Z,2.20
2022-09-15T03:12:18.278Z,2.50
2022-09-15T03:14:46.879Z,2.73
2022-09-15T03:17:13.599Z,2.67
2022-09-15T03:19:40.305Z,2.87
2022-09-15T03:22:07.033Z,3.00
2022-09-15T03:24:33.712Z,2.87
2022-09-15T03:27:00.461Z,2.87
2022-09-15T03:29:27.276Z,2.80
2022-09-15T03:31:54.108Z,3.40
2022-09-15T03:34:21.090Z,2.73
2022-09-15T03:36:47.826Z,3.13
2022-09-15T03:39:14.706Z,3.33
2022-09-15T03:41:41.687Z,3.10
2022-09-15T03:44:08.535Z,3.30
2022-09-15T03:46:35.572Z,3.40
2022-09-15T03:49:02.345Z,3.80
2022-09-15T03:51:29.056Z,3.50
2022-09-15T03:53:55.983Z,3.60
2022-09-15T03:56:32.524Z,3.93
2022-09-15T03:59:01.623Z,3.23
2022-09-15T04:01:30.002Z,3.40
2022-09-15T04:03:57.840Z,3.23
2022-09-15T04:06:25.787Z,3.53
2022-09-15T04:08:53.420Z,2.90
2022-09-15T04:11:22.597Z,3.13
2022-09-15T04:13:50.273Z,3.57
2022-09-15T04:16:23.177Z,3.43
2022-09-15T04:18:51.610Z,3.30
2022-09-15T04:21:22.744Z,3.13
2022-09-15T04:23:50.020Z,3.20
2022-09-15T04:26:34.402Z,2.97
2022-09-15T04:29:04.796Z,3.43
2022-09-15T04:31:33.836Z,3.30
2022-09-15T04:34:00.811Z,3.33
2022-09-15T04:36:28.807Z,3.10
2022-09-15T04:38:56.362Z,3.50
2022-09-15T04:41:25.679Z,3.07
2022-09-15T04:43:52.681Z,3.30
2022-09-15T04:46:19.952Z,3.10
2022-09-15T04:48:48.584Z,2.63
2022-09-15T04:51:19.625Z,2.63
2022-09-15T04:53:47.107Z,2.53
2022-09-15T04:56:20.693Z,2.73
2022-09-15T04:58:57.266Z,3.00
2022-09-15T05:01:30.437Z,3.57
2022-09-15T05:03:57.223Z,2.83
2022-09-15T05:06:26.907Z,2.80
2022-09-15T05:08:57.144Z,2.73
2022-09-15T05:11:27.595Z,2.37
2022-09-15T05:13:54.864Z,2.80
2022-09-15T05:16:27.768Z,2.80
2022-09-15T05:18:57.761Z,2.73
2022-09-15T05:21:24.857Z,2.23
2022-09-15T05:23:52.279Z,2.60
2022-09-15T05:26:25.129Z,2.77
2022-09-15T05:28:52.509Z,2.60
2022-09-15T05:31:26.683Z,2.70
2022-09-15T05:33:54.210Z,2.67
2022-09-15T05:36:25.071Z,3.13
2022-09-15T05:38:54.076Z,2.50
2022-09-15T05:41:20.916Z,2.90
2022-09-15T05:43:50.904Z,2.63
2022-09-15T05:46:20.427Z,2.80
2022-09-15T05:48:47.496Z,2.47
2022-09-15T05:51:14.933Z,2.53
2022-09-15T05:53:42.153Z,2.63
2022-09-15T05:56:13.439Z,2.60
2022-09-15T05:58:42.458Z,2.43
2022-09-15T06:01:15.270Z,2.60
2022-09-15T06:03:42.704Z,2.30
2022-09-15T06:06:09.536Z,2.30
2022-09-15T06:08:48.236Z,2.50
2022-09-15T06:11:28.600Z,2.70
2022-09-15T06:13:58.394Z,2.70
2022-09-15T06:16:25.421Z,2.57
2022-09-15T06:18:53.939Z,2.87
2022-09-15T06:21:25.274Z,2.60
2022-09-15T06:24:01.838Z,2.67
2022-09-15T06:26:29.390Z,3.10
2022-09-15T06:29:03.120Z,2.90
2022-09-15T06:31:32.702Z,2.37
2022-09-15T06:34:00.541Z,2.40
2022-09-15T06:36:30.705Z,2.67
2022-09-15T06:38:58.649Z,3.13
2022-09-15T06:41:30.911Z,3.17
2022-09-15T06:44:05.613Z,2.97
2022-09-15T06:46:32.327Z,3.17
2022-09-15T06:48:59.262Z,3.50
2022-09-15T06:51:28.657Z,2.97
2022-09-15T06:53:55.430Z,3.30
2022-09-15T06:56:23.779Z,2.63
2022-09-15T06:58:51.279Z,2.90
2022-09-15T07:01:31.288Z,3.03
2022-09-15T07:04:01.350Z,3.50
2022-09-15T07:06:30.616Z,2.90
2022-09-15T07:08:58.457Z,3.60
2022-09-15T07:11:26.167Z,3.47
2022-09-15T07:13:53.271Z,3.33
2022-09-15T07:16:21.458Z,3.10
2022-09-15T07:18:49.754Z,2.70
2022-09-15T07:21:22.571Z,2.73
2022-09-15T07:23:49.736Z,2.70
2022-09-15T07:26:20.935Z,1.70
2022-09-15T07:28:51.820Z,1.70
2022-09-15T07:31:22.242Z,1.30
2022-09-15T07:33:49.319Z,1.50
2022-09-15T07:36:17.190Z,1.40
2022-09-15T07:38:48.013Z,1.30
2022-09-15T07:41:27.111Z,1.20
2022-09-15T07:43:58.216Z,1.20
2022-09-15T07:46:28.005Z,1.23
2022-09-15T07:48:58.010Z,0.90
2022-09-15T07:51:26.026Z,0.80
2022-09-15T07:53:53.573Z,0.90
2022-09-15T07:56:21.540Z,1.10
2022-09-15T07:58:49.535Z,0.83
2022-09-15T08:01:19.006Z,1.00
2022-09-15T08:03:49.629Z,0.90
2022-09-15T08:06:20.760Z,0.90
2022-09-15T08:08:48.991Z,1.10
2022-09-15T08:11:19.216Z,0.80
2022-09-15T08:13:50.934Z,0.80
2022-09-15T08:16:22.804Z,0.80
2022-09-15T08:18:52.444Z,0.80
2022-09-15T08:21:21.829Z,0.80
2022-09-15T08:24:06.580Z,0.80
2022-09-15T08:26:33.334Z,0.90
2022-09-15T08:29:00.563Z,0.90
2022-09-15T08:31:27.490Z,0.80
2022-09-15T08:33:56.127Z,0.80
2022-09-15T08:36:24.466Z,0.87
2022-09-15T08:38:51.211Z,0.80
2022-09-15T08:41:33.464Z,0.83
2022-09-15T08:44:15.979Z,0.83
2022-09-15T08:47:00.164Z,0.97
2022-09-15T08:49:52.617Z,0.90
2022-09-15T08:52:34.127Z,0.90
2022-09-15T08:55:13.389Z,0.90
2022-09-15T08:57:40.503Z,1.00
2022-09-15T09:00:16.173Z,1.07
2022-09-15T09:03:21.948Z,1.00
2022-09-15T09:06:28.885Z,0.90
2022-09-15T09:09:17.267Z,0.80
2022-09-15T09:12:06.884Z,1.00
2022-09-15T09:14:59.552Z,0.90
2022-09-15T09:18:09.168Z,0.70
2022-09-15T09:20:51.098Z,0.90
2022-09-15T09:23:24.061Z,0.80
2022-09-15T09:25:52.102Z,0.80
2022-09-15T09:28:42.203Z,0.90
2022-09-15T09:31:21.560Z,0.80
2022-09-15T09:34:20.532Z,0.87
2022-09-15T09:36:57.627Z,0.80
2022-09-15T09:39:26.619Z,1.00
2022-09-15T09:41:54.479Z,0.80
2022-09-15T09:44:21.524Z,0.90
2022-09-15T09:46:49.112Z,0.90
2022-09-15T09:49:24.476Z,0.80
2022-09-15T09:51:55.099Z,0.90
2022-09-15T09:54:27.133Z,0.90
2022-09-15T09:56:56.102Z,1.00
2022-09-15T09:59:46.370Z,0.90
2022-09-15T10:02:16.136Z,0.70
2022-09-15T10:04:46.403Z,0.80
2022-09-15T10:07:16.960Z,1.00
2022-09-15T10:09:52.800Z,1.20
2022-09-15T10:12:31.428Z,1.00
2022-09-15T10:15:04.197Z,0.80
2022-09-15T10:17:44.681Z,1.00
2022-09-15T10:20:47.688Z,1.00
2022-09-15T10:23:17.444Z,1.00
2022-09-15T10:25:58.591Z,0.80
2022-09-15T10:28:27.831Z,1.00
2022-09-15T10:31:15.549Z,0.90
2022-09-15T10:33:47.549Z,0.87
2022-09-15T10:36:23.704Z,0.90
2022-09-15T10:39:10.318Z,0.90
2022-09-15T10:41:56.703Z,0.80
2022-09-15T10:45:00.173Z,0.90
2022-09-15T10:47:44.843Z,0.90
2022-09-15T10:50:14.530Z,1.03
2022-09-15T10:53:05.975Z,0.90
2022-09-15T10:56:40.011Z,0.83
2022-09-15T10:59:39.894Z,1.00
2022-09-15T11:02:48.095Z,1.00
2022-09-15T11:05:52.067Z,0.90
2022-09-15T11:09:01.234Z,0.90
2022-09-15T11:12:00.191Z,1.10
2022-09-15T11:15:13.035Z,1.10
2022-09-15T11:18:17.777Z,1.07
2022-09-15T11:21:02.714Z,1.00
2022-09-15T11:23:42.103Z,1.03
2022-09-15T11:26:30.989Z,1.20
2022-09-15T11:29:16.603Z,1.23
2022-09-15T11:31:49.496Z,1.23
2022-09-15T11:34:41.893Z,1.20
2022-09-15T11:37:18.997Z,1.30
2022-09-15T11:39:58.493Z,1.10
2022-09-15T11:43:00.374Z,1.20
2022-09-15T11:45:37.343Z,1.30
2022-09-15T11:48:18.479Z,1.23
2022-09-15T11:50:49.898Z,1.20
2022-09-15T11:53:25.507Z,1.20
2022-09-15T11:56:11.735Z,1.30
2022-09-15T11:59:13.655Z,1.50
2022-09-15T12:02:08.612Z,1.50
2022-09-15T12:05:02.392Z,1.40
2022-09-15T12:07:36.367Z,1.53
2022-09-15T12:10:17.775Z,1.43
2022-09-15T12:12:46.323Z,1.60
2022-09-15T12:15:20.226Z,1.50
2022-09-15T12:17:57.912Z,1.60
2022-09-15T12:20:34.524Z,1.60
2022-09-15T12:23:50.645Z,1.67
2022-09-15T12:26:21.999Z,1.80
2022-09-15T12:28:54.559Z,1.97
2022-09-15T12:31:40.317Z,1.63
2022-09-15T12:34:25.039Z,2.00
2022-09-15T12:37:08.415Z,1.83
2022-09-15T12:39:45.337Z,1.67
2022-09-15T12:42:24.151Z,1.83
2022-09-15T12:45:19.098Z,2.07
2022-09-15T12:47:56.945Z,1.77
2022-09-15T12:50:37.555Z,2.17
2022-09-15T12:53:20.456Z,1.87
2022-09-15T12:55:57.906Z,1.50
2022-09-15T12:58:50.018Z,1.70
2022-09-15T13:01:24.668Z,1.90
2022-09-15T13:03:53.690Z,1.97
2022-09-15T13:06:34.139Z,1.93
2022-09-15T13:09:05.254Z,2.00
2022-09-15T13:11:37.005Z,2.10
2022-09-15T13:14:03.873Z,1.90
2022-09-15T13:17:03.188Z,1.77
2022-09-15T13:19:41.774Z,1.73
2022-09-15T13:22:11.309Z,1.77
2022-09-15T13:24:59.222Z,1.90
2022-09-15T13:27:47.075Z,2.00
2022-09-15T13:30:44.516Z,2.23
2022-09-15T13:40:27.242Z,2.30
2022-09-15T13:43:16.304Z,2.20
2022-09-15T13:46:05.039Z,2.40
2022-09-15T13:48:39.711Z,2.43
2022-09-15T13:51:26.414Z,2.40
2022-09-15T13:53:59.599Z,2.40
2022-09-15T13:56:31.975Z,2.77
2022-09-15T13:59:14.438Z,2.17
2022-09-15T14:01:43.459Z,1.90
2022-09-15T14:04:30.723Z,2.37
2022-09-15T14:07:01.735Z,2.37
2022-09-15T14:09:49.869Z,2.30
2022-09-15T14:12:18.327Z,2.27
2022-09-15T14:14:58.046Z,1.90
2022-09-15T14:17:28.680Z,1.97
2022-09-15T14:19:59.183Z,1.87
2022-09-15T14:22:34.622Z,2.03
2022-09-15T14:25:14.551Z,2.07
2022-09-15T14:27:50.681Z,1.90
2022-09-15T14:30:31.969Z,1.77
2022-09-15T14:33:01.959Z,1.90
2022-09-15T14:35:37.570Z,1.80
2022-09-15T14:38:04.439Z,1.60
2022-09-15T14:40:41.218Z,2.20
2022-09-15T14:43:33.171Z,1.83
2022-09-15T14:46:18.372Z,1.80
2022-09-15T14:48:45.057Z,1.70
2022-09-15T14:51:23.559Z,1.70
2022-09-15T14:53:55.239Z,2.13
2022-09-15T14:56:29.659Z,1.90
2022-09-15T14:59:05.071Z,1.67
2022-09-15T15:01:40.578Z,1.80
2022-09-15T15:04:25.465Z,1.80
2022-09-15T15:06:54.065Z,1.90
2022-09-15T15:09:56.315Z,1.70
2022-09-15T15:12:49.988Z,1.60
2022-09-15T15:15:18.285Z,1.50
2022-09-15T15:17:54.357Z,1.70
2022-09-15T15:20:28.229Z,1.50
2022-09-15T15:23:22.970Z,1.57
2022-09-15T15:25:50.374Z,2.00
2022-09-15T15:28:30.598Z,1.60
2022-09-15T15:31:20.715Z,1.60
2022-09-15T15:33:55.775Z,1.37
2022-09-15T15:36:25.056Z,1.70
2022-09-15T15:39:26.915Z,1.77
2022-09-15T15:42:05.189Z,1.60
2022-09-15T15:44:32.732Z,1.50
2022-09-15T15:47:14.645Z,1.60
2022-09-15T15:50:02.235Z,1.60
2022-09-15T15:52:28.049Z,1.90
2022-09-15T15:54:54.766Z,1.90
2022-09-15T15:57:30.105Z,1.60
2022-09-15T16:00:00.360Z,2.27
2022-09-15T16:02:27.622Z,1.57
2022-09-15T16:04:54.853Z,1.73
2022-09-15T16:07:27.111Z,1.73
2022-09-15T16:09:56.854Z,1.90
2022-09-15T16:12:23.557Z,2.50
2022-09-15T16:14:50.261Z,2.40
2022-09-15T16:17:16.954Z,2.40
2022-09-15T16:19:43.646Z,2.37
2022-09-15T16:22:20.475Z,2.10
2022-09-15T16:24:47.790Z,1.83
2022-09-15T16:27:17.938Z,1.70
2022-09-15T16:29:45.407Z,2.47
2022-09-15T16:32:21.671Z,1.83
2022-09-15T16:34:53.799Z,2.00
2022-09-15T16:37:21.942Z,2.03
2022-09-15T16:39:51.905Z,1.93
2022-09-15T16:42:18.900Z,2.03
2022-09-15T16:44:46.173Z,1.83
2022-09-15T16:47:12.871Z,1.97
2022-09-15T16:49:39.661Z,2.07
2022-09-15T16:52:07.978Z,2.20
2022-09-15T16:54:34.728Z,2.07
2022-09-15T16:57:01.546Z,2.10
2022-09-15T16:59:28.297Z,2.10
2022-09-15T17:01:55.197Z,2.13
2022-09-15T17:04:22.715Z,2.30
2022-09-15T17:06:49.455Z,2.10
2022-09-15T17:09:16.170Z,2.30
2022-09-15T17:11:42.973Z,2.37
2022-09-15T17:14:15.343Z,2.70
2022-09-15T17:16:42.057Z,2.53
2022-09-15T17:19:08.777Z,2.73
2022-09-15T17:21:36.211Z,2.90
2022-09-15T17:24:03.013Z,2.57
2022-09-15T17:26:31.626Z,2.40
2022-09-15T17:28:58.800Z,2.70
2022-09-15T17:31:27.775Z,2.90
2022-09-15T17:33:54.609Z,2.80
2022-09-15T17:36:21.414Z,2.70
2022-09-15T17:38:48.762Z,3.10
2022-09-15T17:41:19.048Z,2.37
2022-09-15T17:43:47.166Z,2.60
2022-09-15T17:46:14.068Z,2.30
2022-09-15T17:48:40.892Z,3.07
2022-09-15T17:51:14.800Z,2.90
2022-09-15T17:53:41.643Z,3.07
2022-09-15T17:56:08.354Z,2.80
2022-09-15T17:58:35.114Z,3.00
2022-09-15T18:01:03.531Z,2.90
2022-09-15T18:03:34.749Z,3.17
2022-09-15T18:06:06.525Z,2.73
2022-09-15T18:08:35.702Z,3.00
2022-09-15T18:11:04.290Z,3.23
2022-09-15T18:13:31.357Z,3.10
2022-09-15T18:16:04.903Z,2.83
2022-09-15T18:18:31.783Z,3.07
2022-09-15T18:20:59.032Z,2.73
2022-09-15T18:23:30.922Z,3.10
2022-09-15T18:25:57.976Z,3.23
2022-09-15T18:28:24.937Z,3.00
2022-09-15T18:30:52.042Z,3.00
2022-09-15T18:33:25.444Z,2.80
2022-09-15T18:35:55.861Z,3.37
2022-09-15T18:38:23.416Z,3.20
2022-09-15T18:40:53.961Z,3.27
2022-09-15T18:43:22.803Z,3.33
2022-09-15T18:45:50.175Z,3.97
2022-09-15T18:48:17.152Z,3.87
2022-09-15T18:50:45.120Z,3.50
2022-09-15T18:53:12.942Z,3.33
2022-09-15T18:55:43.615Z,3.10
2022-09-15T18:58:11.507Z,3.43
2022-09-15T19:00:38.314Z,3.50
2022-09-15T19:03:09.255Z,3.47
2022-09-15T19:05:36.973Z,3.53
2022-09-15T19:08:04.373Z,3.53
2022-09-15T19:10:31.118Z,3.70
2022-09-15T19:12:57.814Z,3.50
2022-09-15T19:15:24.531Z,3.83
2022-09-15T19:17:51.795Z,3.47
2022-09-15T19:20:18.946Z,3.53
2022-09-15T19:22:47.300Z,3.80
2022-09-15T19:25:14.615Z,4.00
2022-09-15T19:27:41.436Z,4.60
2022-09-15T19:30:10.352Z,4.50
2022-09-15T19:32:39.854Z,3.73
2022-09-15T19:35:08.024Z,4.20
2022-09-15T19:37:40.494Z,3.83
2022-09-15T19:40:11.986Z,3.60
2022-09-15T19:42:41.355Z,3.90
2022-09-15T19:45:11.288Z,4.00
2022-09-15T19:47:39.293Z,4.83
2022-09-15T19:50:08.212Z,6.07
2022-09-15T19:52:35.049Z,5.10
2022-09-15T19:55:01.919Z,5.30
2022-09-15T19:57:28.633Z,5.20
2022-09-15T19:59:55.420Z,5.97
2022-09-15T20:02:22.315Z,5.10
2022-09-15T20:04:50.302Z,5.70
2022-09-15T20:07:17.379Z,6.23
2022-09-15T20:09:44.152Z,6.20
2022-09-15T20:12:10.893Z,5.40
2022-09-15T20:14:37.658Z,5.57
2022-09-15T20:17:04.880Z,5.63
2022-09-15T20:19:31.615Z,5.40
2022-09-15T20:21:58.622Z,4.60
2022-09-15T20:24:25.495Z,4.70
2022-09-15T20:26:52.698Z,4.70
2022-09-15T20:29:20.554Z,4.37
2022-09-15T20:31:48.113Z,4.60
2022-09-15T20:34:15.178Z,4.53
2022-09-15T20:36:42.461Z,4.33
2022-09-15T20:39:14.433Z,4.00
2022-09-15T20:41:45.913Z,3.80
2022-09-15T20:44:13.106Z,3.90
2022-09-15T20:46:40.434Z,3.83
2022-09-15T20:49:07.581Z,3.80
2022-09-15T20:51:35.119Z,4.10
2022-09-15T20:54:04.012Z,4.13
2022-09-15T20:56:34.798Z,4.37
2022-09-15T20:59:03.948Z,3.67
2022-09-15T21:01:37.119Z,4.10
2022-09-15T21:04:06.489Z,4.30
2022-09-15T21:06:34.187Z,3.83
2022-09-15T21:09:00.967Z,3.70
2022-09-15T21:11:31.126Z,4.33
2022-09-15T21:13:58.725Z,3.70
2022-09-15T21:16:28.257Z,4.07
2022-09-15T21:18:58.375Z,4.47
2022-09-15T21:21:31.657Z,3.80
2022-09-15T21:24:05.951Z,4.20
2022-09-15T21:26:58.999Z,3.90
2022-09-15T21:29:27.701Z,3.33
2022-09-15T21:31:55.639Z,3.50
2022-09-15T21:34:22.496Z,3.20
2022-09-15T21:36:50.858Z,3.70
2022-09-15T21:39:17.755Z,3.67
2022-09-15T21:41:44.534Z,4.63
2022-09-15T21:44:11.743Z,4.30
2022-09-15T21:46:38.451Z,4.40
2022-09-15T21:49:05.402Z,4.87
2022-09-15T21:51:32.121Z,4.10
2022-09-15T21:54:00.478Z,3.77
2022-09-15T21:56:29.679Z,3.80
2022-09-15T21:58:56.429Z,4.53
2022-09-15T22:01:29.731Z,4.20
2022-09-15T22:04:03.727Z,4.07
2022-09-15T22:06:36.461Z,4.00
2022-09-15T22:09:10.470Z,4.30
2022-09-15T22:11:37.781Z,4.20
2022-09-15T22:14:08.095Z,4.23
2022-09-15T22:16:38.173Z,4.10
2022-09-15T22:19:07.214Z,4.20
2022-09-15T22:21:36.694Z,4.40
2022-09-15T22:24:06.812Z,4.13
2022-09-15T22:26:37.914Z,4.43
2022-09-15T22:29:05.983Z,4.73
2022-09-15T22:31:33.699Z,4.67
2022-09-15T22:34:00.546Z,4.60
2022-09-15T22:36:30.689Z,4.70
2022-09-15T22:39:05.813Z,4.97
2022-09-15T22:41:36.399Z,4.67
2022-09-15T22:44:05.188Z,4.77
2022-09-15T22:46:32.269Z,4.50
2022-09-15T22:48:59.656Z,4.83
2022-09-15T22:51:26.370Z,4.47
2022-09-15T22:53:56.900Z,4.90
2022-09-15T22:56:25.814Z,5.03
2022-09-15T22:58:53.147Z,5.30
2022-09-15T23:01:28.751Z,5.43
2022-09-15T23:03:59.200Z,4.90
2022-09-15T23:06:30.534Z,5.27
2022-09-15T23:09:01.474Z,5.73
2022-09-15T23:11:29.887Z,5.00
2022-09-15T23:13:57.017Z,4.93
2022-09-15T23:16:26.106Z,4.90
2022-09-15T23:18:54.448Z,4.80
2022-09-15T23:21:22.364Z,5.10
2022-09-15T23:23:49.302Z,4.70
2022-09-15T23:26:20.419Z,5.00
2022-09-15T23:28:49.084Z,5.30
2022-09-15T23:31:17.328Z,6.43
2022-09-15T23:33:44.486Z,6.47
2022-09-15T23:36:15.536Z,4.90
2022-09-15T23:38:44.389Z,5.87
2022-09-15T23:41:12.931Z,5.80
2022-09-15T23:43:39.812Z,5.90
2022-09-15T23:46:07.191Z,5.37
2022-09-15T23:48:34.059Z,4.83
2022-09-15T23:51:01.697Z,4.50
2022-09-15T23:53:29.555Z,4.73
2022-09-15T23:55:56.632Z,4.50
2022-09-15T23:58:23.763Z,4.60
